sensor_id;sensor_type;location;lat;lon;timestamp;P1;durP1;ratioP1;P2;durP2;ratioP2
60588;SDS011;46421;48.610;9.334;2023-02-28T00:01:18;4.80;;;1.33;;
60588;SDS011;46421;48.610;9.334;2023-02-28T00:03:44;5.53;;;1.35;;
60588;SDS011;46421;48.610;9.334;2023-02-28T00:06:09;4.10;;;1.43;;
60588;SDS011;46421;48.610;9.334;2023-02-28T00:08:35;4.37;;;1.20;;
60588;SDS011;46421;48.610;9.334;2023-02-28T00:11:10;1.73;;;0.90;;
60588;SDS011;46421;48.610;9.334;2023-02-28T00:13:38;2.15;;;1.00;;
60588;SDS011;46421;48.610;9.334;2023-02-28T00:16:08;4.97;;;1.58;;
60588;SDS011;46421;48.610;9.334;2023-02-28T00:18:35;4.10;;;1.10;;
60588;SDS011;46421;48.610;9.334;2023-02-28T00:21:01;3.65;;;1.20;;
60588;SDS011;46421;48.610;9.334;2023-02-28T00:23:27;4.95;;;1.20;;
60588;SDS011;46421;48.610;9.334;2023-02-28T00:25:53;4.13;;;1.48;;
60588;SDS011;46421;48.610;9.334;2023-02-28T00:28:19;3.33;;;1.17;;
60588;SDS011;46421;48.610;9.334;2023-02-28T00:30:45;3.10;;;1.52;;
60588;SDS011;46421;48.610;9.334;2023-02-28T00:33:10;5.23;;;1.47;;
60588;SDS011;46421;48.610;9.334;2023-02-28T00:35:36;7.13;;;1.30;;
60588;SDS011;46421;48.610;9.334;2023-02-28T00:38:01;3.28;;;1.10;;
60588;SDS011;46421;48.610;9.334;2023-02-28T00:40:27;6.15;;;1.17;;
60588;SDS011;46421;48.610;9.334;2023-02-28T00:42:52;3.78;;;1.48;;
60588;SDS011;46421;48.610;9.334;2023-02-28T00:45:18;3.07;;;1.37;;
60588;SDS011;46421;48.610;9.334;2023-02-28T00:47:44;3.05;;;1.15;;
60588;SDS011;46421;48.610;9.334;2023-02-28T00:52:36;3.78;;;1.20;;
60588;SDS011;46421;48.610;9.334;2023-02-28T00:55:02;1.92;;;0.90;;
60588;SDS011;46421;48.610;9.334;2023-02-28T00:57:27;3.67;;;1.10;;
60588;SDS011;46421;48.610;9.334;2023-02-28T00:59:53;3.55;;;0.90;;
60588;SDS011;46421;48.610;9.334;2023-02-28T01:02:22;3.40;;;1.48;;
60588;SDS011;46421;48.610;9.334;2023-02-28T01:04:48;3.83;;;1.55;;
60588;SDS011;46421;48.610;9.334;2023-02-28T01:07:13;6.18;;;1.33;;
60588;SDS011;46421;48.610;9.334;2023-02-28T01:09:39;2.65;;;1.23;;
60588;SDS011;46421;48.610;9.334;2023-02-28T01:12:06;3.83;;;1.02;;
60588;SDS011;46421;48.610;9.334;2023-02-28T01:14:32;3.85;;;1.33;;
60588;SDS011;46421;48.610;9.334;2023-02-28T01:16:58;3.83;;;1.52;;
60588;SDS011;46421;48.610;9.334;2023-02-28T01:19:23;2.97;;;1.20;;
60588;SDS011;46421;48.610;9.334;2023-02-28T01:21:49;3.22;;;0.93;;
60588;SDS011;46421;48.610;9.334;2023-02-28T01:24:14;3.03;;;1.30;;
60588;SDS011;46421;48.610;9.334;2023-02-28T01:26:39;4.32;;;1.25;;
60588;SDS011;46421;48.610;9.334;2023-02-28T01:29:05;2.78;;;1.38;;
60588;SDS011;46421;48.610;9.334;2023-02-28T01:31:30;3.50;;;1.33;;
60588;SDS011;46421;48.610;9.334;2023-02-28T01:33:56;3.08;;;1.20;;
60588;SDS011;46421;48.610;9.334;2023-02-28T01:36:22;2.50;;;1.00;;
60588;SDS011;46421;48.610;9.334;2023-02-28T01:38:49;2.38;;;0.85;;
60588;SDS011;46421;48.610;9.334;2023-02-28T01:41:22;3.13;;;1.23;;
60588;SDS011;46421;48.610;9.334;2023-02-28T01:46:22;3.90;;;1.48;;
60588;SDS011;46421;48.610;9.334;2023-02-28T01:51:47;3.25;;;1.42;;
60588;SDS011;46421;48.610;9.334;2023-02-28T01:54:19;2.88;;;0.90;;
60588;SDS011;46421;48.610;9.334;2023-02-28T01:56:54;4.65;;;1.65;;
60588;SDS011;46421;48.610;9.334;2023-02-28T01:59:27;3.80;;;1.10;;
60588;SDS011;46421;48.610;9.334;2023-02-28T02:01:56;3.30;;;1.40;;
60588;SDS011;46421;48.610;9.334;2023-02-28T02:04:23;3.05;;;1.15;;
60588;SDS011;46421;48.610;9.334;2023-02-28T02:06:52;2.92;;;1.13;;
60588;SDS011;46421;48.610;9.334;2023-02-28T02:09:17;3.90;;;1.40;;
60588;SDS011;46421;48.610;9.334;2023-02-28T02:11:43;5.13;;;1.50;;
60588;SDS011;46421;48.610;9.334;2023-02-28T02:38:50;3.30;;;1.38;;
60588;SDS011;46421;48.610;9.334;2023-02-28T02:41:24;3.50;;;1.30;;
60588;SDS011;46421;48.610;9.334;2023-02-28T02:46:30;4.70;;;1.90;;
60588;SDS011;46421;48.610;9.334;2023-02-28T02:48:59;4.80;;;1.33;;
60588;SDS011;46421;48.610;9.334;2023-02-28T02:51:28;4.20;;;1.50;;
60588;SDS011;46421;48.610;9.334;2023-02-28T02:56:48;4.15;;;1.55;;
60588;SDS011;46421;48.610;9.334;2023-02-28T02:59:15;3.83;;;1.50;;
60588;SDS011;46421;48.610;9.334;2023-02-28T03:01:46;3.83;;;1.23;;
60588;SDS011;46421;48.610;9.334;2023-02-28T03:04:19;3.03;;;1.10;;
60588;SDS011;46421;48.610;9.334;2023-02-28T03:06:46;4.43;;;1.77;;
60588;SDS011;46421;48.610;9.334;2023-02-28T03:09:12;6.38;;;1.85;;
60588;SDS011;46421;48.610;9.334;2023-02-28T03:11:38;3.92;;;1.60;;
60588;SDS011;46421;48.610;9.334;2023-02-28T03:27:39;4.38;;;1.67;;
60588;SDS011;46421;48.610;9.334;2023-02-28T03:32:38;4.80;;;1.52;;
60588;SDS011;46421;48.610;9.334;2023-02-28T03:37:40;4.45;;;1.77;;
60588;SDS011;46421;48.610;9.334;2023-02-28T03:40:14;5.15;;;1.52;;
60588;SDS011;46421;48.610;9.334;2023-02-28T03:42:43;5.53;;;1.95;;
60588;SDS011;46421;48.610;9.334;2023-02-28T03:45:13;4.85;;;1.52;;
60588;SDS011;46421;48.610;9.334;2023-02-28T03:47:49;3.45;;;1.45;;
60588;SDS011;46421;48.610;9.334;2023-02-28T03:50:27;4.40;;;1.40;;
60588;SDS011;46421;48.610;9.334;2023-02-28T03:53:18;5.35;;;1.92;;
60588;SDS011;46421;48.610;9.334;2023-02-28T03:55:49;5.72;;;1.85;;
60588;SDS011;46421;48.610;9.334;2023-02-28T03:58:25;3.75;;;1.40;;
60588;SDS011;46421;48.610;9.334;2023-02-28T04:01:13;4.78;;;1.67;;
60588;SDS011;46421;48.610;9.334;2023-02-28T04:03:44;3.97;;;1.38;;
60588;SDS011;46421;48.610;9.334;2023-02-28T04:06:13;4.05;;;1.85;;
60588;SDS011;46421;48.610;9.334;2023-02-28T04:08:42;3.88;;;1.60;;
60588;SDS011;46421;48.610;9.334;2023-02-28T04:14:00;2.97;;;1.42;;
60588;SDS011;46421;48.610;9.334;2023-02-28T04:16:27;3.28;;;1.42;;
60588;SDS011;46421;48.610;9.334;2023-02-28T04:18:53;3.50;;;1.73;;
60588;SDS011;46421;48.610;9.334;2023-02-28T04:21:18;3.83;;;1.80;;
60588;SDS011;46421;48.610;9.334;2023-02-28T04:23:47;5.00;;;1.88;;
60588;SDS011;46421;48.610;9.334;2023-02-28T04:26:12;4.50;;;1.80;;
60588;SDS011;46421;48.610;9.334;2023-02-28T04:28:38;4.53;;;1.80;;
60588;SDS011;46421;48.610;9.334;2023-02-28T04:31:04;4.57;;;1.73;;
60588;SDS011;46421;48.610;9.334;2023-02-28T04:33:30;2.55;;;1.38;;
60588;SDS011;46421;48.610;9.334;2023-02-28T04:35:57;3.88;;;1.48;;
60588;SDS011;46421;48.610;9.334;2023-02-28T04:38:24;4.13;;;1.75;;
60588;SDS011;46421;48.610;9.334;2023-02-28T04:40:49;6.00;;;1.83;;
60588;SDS011;46421;48.610;9.334;2023-02-28T04:43:15;5.77;;;1.90;;
60588;SDS011;46421;48.610;9.334;2023-02-28T04:45:40;5.20;;;1.70;;
60588;SDS011;46421;48.610;9.334;2023-02-28T04:48:05;5.47;;;2.00;;
60588;SDS011;46421;48.610;9.334;2023-02-28T04:50:31;8.55;;;1.80;;
60588;SDS011;46421;48.610;9.334;2023-02-28T04:52:56;4.10;;;1.77;;
60588;SDS011;46421;48.610;9.334;2023-02-28T04:55:21;6.15;;;1.90;;
60588;SDS011;46421;48.610;9.334;2023-02-28T04:57:47;5.67;;;1.97;;
60588;SDS011;46421;48.610;9.334;2023-02-28T05:00:13;7.68;;;2.10;;
60588;SDS011;46421;48.610;9.334;2023-02-28T05:02:41;4.68;;;1.45;;
60588;SDS011;46421;48.610;9.334;2023-02-28T05:05:07;5.73;;;1.60;;
60588;SDS011;46421;48.610;9.334;2023-02-28T05:07:32;4.80;;;1.88;;
60588;SDS011;46421;48.610;9.334;2023-02-28T05:09:57;5.35;;;1.75;;
60588;SDS011;46421;48.610;9.334;2023-02-28T05:12:23;5.03;;;2.00;;
60588;SDS011;46421;48.610;9.334;2023-02-28T05:14:48;4.50;;;1.83;;
60588;SDS011;46421;48.610;9.334;2023-02-28T05:17:13;5.03;;;2.17;;
60588;SDS011;46421;48.610;9.334;2023-02-28T05:19:39;7.83;;;2.40;;
60588;SDS011;46421;48.610;9.334;2023-02-28T05:22:04;4.43;;;1.83;;
60588;SDS011;46421;48.610;9.334;2023-02-28T05:24:29;5.90;;;1.73;;
60588;SDS011;46421;48.610;9.334;2023-02-28T05:26:55;3.90;;;1.60;;
60588;SDS011;46421;48.610;9.334;2023-02-28T05:29:21;5.32;;;2.03;;
60588;SDS011;46421;48.610;9.334;2023-02-28T05:31:46;5.45;;;2.30;;
60588;SDS011;46421;48.610;9.334;2023-02-28T05:34:12;5.68;;;2.10;;
60588;SDS011;46421;48.610;9.334;2023-02-28T05:36:38;4.95;;;2.10;;
60588;SDS011;46421;48.610;9.334;2023-02-28T05:39:05;6.80;;;2.03;;
60588;SDS011;46421;48.610;9.334;2023-02-28T05:41:32;5.82;;;2.05;;
60588;SDS011;46421;48.610;9.334;2023-02-28T05:43:57;6.25;;;2.10;;
60588;SDS011;46421;48.610;9.334;2023-02-28T05:46:24;5.80;;;2.20;;
60588;SDS011;46421;48.610;9.334;2023-02-28T05:48:49;5.97;;;2.30;;
60588;SDS011;46421;48.610;9.334;2023-02-28T05:51:15;3.95;;;2.17;;
60588;SDS011;46421;48.610;9.334;2023-02-28T05:53:41;6.47;;;2.40;;
60588;SDS011;46421;48.610;9.334;2023-02-28T05:56:07;5.22;;;1.67;;
60588;SDS011;46421;48.610;9.334;2023-02-28T05:58:33;4.03;;;1.55;;
60588;SDS011;46421;48.610;9.334;2023-02-28T06:01:00;4.30;;;1.85;;
60588;SDS011;46421;48.610;9.334;2023-02-28T06:03:44;5.80;;;2.33;;
60588;SDS011;46421;48.610;9.334;2023-02-28T06:06:09;4.20;;;1.60;;
60588;SDS011;46421;48.610;9.334;2023-02-28T06:08:34;4.00;;;1.87;;
60588;SDS011;46421;48.610;9.334;2023-02-28T06:11:02;6.63;;;2.60;;
60588;SDS011;46421;48.610;9.334;2023-02-28T06:13:28;3.25;;;1.55;;
60588;SDS011;46421;48.610;9.334;2023-02-28T06:15:53;7.07;;;2.10;;
60588;SDS011;46421;48.610;9.334;2023-02-28T06:18:19;6.40;;;2.43;;
60588;SDS011;46421;48.610;9.334;2023-02-28T06:20:44;5.23;;;2.20;;
60588;SDS011;46421;48.610;9.334;2023-02-28T06:23:09;6.33;;;2.13;;
60588;SDS011;46421;48.610;9.334;2023-02-28T06:25:35;6.43;;;2.30;;
60588;SDS011;46421;48.610;9.334;2023-02-28T06:28:00;4.35;;;1.92;;
60588;SDS011;46421;48.610;9.334;2023-02-28T06:30:26;6.60;;;2.17;;
60588;SDS011;46421;48.610;9.334;2023-02-28T06:32:54;6.30;;;2.22;;
60588;SDS011;46421;48.610;9.334;2023-02-28T06:35:20;6.70;;;2.57;;
60588;SDS011;46421;48.610;9.334;2023-02-28T06:37:45;6.88;;;2.83;;
60588;SDS011;46421;48.610;9.334;2023-02-28T06:40:12;6.60;;;2.55;;
60588;SDS011;46421;48.610;9.334;2023-02-28T06:42:37;6.40;;;2.72;;
60588;SDS011;46421;48.610;9.334;2023-02-28T06:45:03;6.28;;;1.73;;
60588;SDS011;46421;48.610;9.334;2023-02-28T06:47:34;4.50;;;2.10;;
60588;SDS011;46421;48.610;9.334;2023-02-28T06:49:59;5.47;;;2.20;;
60588;SDS011;46421;48.610;9.334;2023-02-28T06:52:26;5.97;;;2.58;;
60588;SDS011;46421;48.610;9.334;2023-02-28T06:54:51;7.45;;;2.70;;
60588;SDS011;46421;48.610;9.334;2023-02-28T06:57:25;4.60;;;1.90;;
60588;SDS011;46421;48.610;9.334;2023-02-28T06:59:55;10.23;;;2.90;;
60588;SDS011;46421;48.610;9.334;2023-02-28T07:02:21;7.07;;;2.97;;
60588;SDS011;46421;48.610;9.334;2023-02-28T07:04:46;6.20;;;2.33;;
60588;SDS011;46421;48.610;9.334;2023-02-28T07:07:11;8.73;;;2.85;;
60588;SDS011;46421;48.610;9.334;2023-02-28T07:09:37;6.95;;;2.50;;
60588;SDS011;46421;48.610;9.334;2023-02-28T07:12:02;8.97;;;2.87;;
60588;SDS011;46421;48.610;9.334;2023-02-28T07:14:28;6.63;;;2.58;;
60588;SDS011;46421;48.610;9.334;2023-02-28T07:16:53;7.00;;;2.63;;
60588;SDS011;46421;48.610;9.334;2023-02-28T07:19:18;7.00;;;2.30;;
60588;SDS011;46421;48.610;9.334;2023-02-28T07:21:44;7.77;;;2.67;;
60588;SDS011;46421;48.610;9.334;2023-02-28T07:24:10;7.50;;;2.70;;
60588;SDS011;46421;48.610;9.334;2023-02-28T07:26:35;9.70;;;2.90;;
60588;SDS011;46421;48.610;9.334;2023-02-28T07:29:01;8.83;;;2.83;;
60588;SDS011;46421;48.610;9.334;2023-02-28T07:31:27;7.00;;;2.97;;
60588;SDS011;46421;48.610;9.334;2023-02-28T07:33:52;6.18;;;2.75;;
60588;SDS011;46421;48.610;9.334;2023-02-28T07:36:18;9.68;;;2.85;;
60588;SDS011;46421;48.610;9.334;2023-02-28T07:38:45;7.82;;;2.80;;
60588;SDS011;46421;48.610;9.334;2023-02-28T07:41:15;5.82;;;2.40;;
60588;SDS011;46421;48.610;9.334;2023-02-28T07:43:41;6.60;;;2.35;;
60588;SDS011;46421;48.610;9.334;2023-02-28T07:46:08;5.65;;;2.65;;
60588;SDS011;46421;48.610;9.334;2023-02-28T07:48:34;10.68;;;3.47;;
60588;SDS011;46421;48.610;9.334;2023-02-28T07:51:00;6.65;;;2.63;;
60588;SDS011;46421;48.610;9.334;2023-02-28T07:53:27;6.20;;;2.72;;
60588;SDS011;46421;48.610;9.334;2023-02-28T07:55:56;5.80;;;2.42;;
60588;SDS011;46421;48.610;9.334;2023-02-28T07:58:23;7.65;;;3.38;;
60588;SDS011;46421;48.610;9.334;2023-02-28T08:00:49;12.05;;;3.17;;
60588;SDS011;46421;48.610;9.334;2023-02-28T08:03:15;7.22;;;2.40;;
60588;SDS011;46421;48.610;9.334;2023-02-28T08:05:42;7.07;;;2.75;;
60588;SDS011;46421;48.610;9.334;2023-02-28T08:08:07;6.57;;;2.20;;
60588;SDS011;46421;48.610;9.334;2023-02-28T08:10:33;7.97;;;2.78;;
60588;SDS011;46421;48.610;9.334;2023-02-28T08:12:58;6.38;;;2.97;;
60588;SDS011;46421;48.610;9.334;2023-02-28T08:15:24;6.97;;;3.05;;
60588;SDS011;46421;48.610;9.334;2023-02-28T08:17:49;6.87;;;3.17;;
60588;SDS011;46421;48.610;9.334;2023-02-28T08:20:14;6.30;;;2.83;;
60588;SDS011;46421;48.610;9.334;2023-02-28T08:22:40;10.55;;;3.40;;
60588;SDS011;46421;48.610;9.334;2023-02-28T08:25:06;10.80;;;3.03;;
60588;SDS011;46421;48.610;9.334;2023-02-28T08:27:32;7.55;;;2.78;;
60588;SDS011;46421;48.610;9.334;2023-02-28T08:29:58;6.20;;;2.78;;
60588;SDS011;46421;48.610;9.334;2023-02-28T08:32:23;7.20;;;3.03;;
60588;SDS011;46421;48.610;9.334;2023-02-28T08:34:48;6.82;;;2.85;;
60588;SDS011;46421;48.610;9.334;2023-02-28T08:37:14;8.23;;;2.72;;
60588;SDS011;46421;48.610;9.334;2023-02-28T08:39:39;7.63;;;3.63;;
60588;SDS011;46421;48.610;9.334;2023-02-28T08:42:04;7.90;;;3.13;;
60588;SDS011;46421;48.610;9.334;2023-02-28T08:44:30;7.13;;;3.03;;
60588;SDS011;46421;48.610;9.334;2023-02-28T08:46:55;9.05;;;3.15;;
60588;SDS011;46421;48.610;9.334;2023-02-28T08:49:21;6.30;;;2.70;;
60588;SDS011;46421;48.610;9.334;2023-02-28T08:51:46;8.63;;;3.57;;
60588;SDS011;46421;48.610;9.334;2023-02-28T08:54:11;8.67;;;3.13;;
60588;SDS011;46421;48.610;9.334;2023-02-28T08:56:37;7.97;;;3.10;;
60588;SDS011;46421;48.610;9.334;2023-02-28T08:59:03;10.13;;;2.65;;
60588;SDS011;46421;48.610;9.334;2023-02-28T09:01:29;7.95;;;3.58;;
60588;SDS011;46421;48.610;9.334;2023-02-28T09:03:55;7.25;;;2.85;;
60588;SDS011;46421;48.610;9.334;2023-02-28T09:06:21;7.65;;;2.97;;
60588;SDS011;46421;48.610;9.334;2023-02-28T09:08:48;5.97;;;3.28;;
60588;SDS011;46421;48.610;9.334;2023-02-28T09:11:14;6.95;;;3.15;;
60588;SDS011;46421;48.610;9.334;2023-02-28T09:13:40;7.80;;;2.78;;
60588;SDS011;46421;48.610;9.334;2023-02-28T09:16:06;7.57;;;3.30;;
60588;SDS011;46421;48.610;9.334;2023-02-28T09:21:03;7.20;;;3.00;;
60588;SDS011;46421;48.610;9.334;2023-02-28T09:23:29;6.10;;;3.42;;
60588;SDS011;46421;48.610;9.334;2023-02-28T09:25:55;6.00;;;2.70;;
60588;SDS011;46421;48.610;9.334;2023-02-28T09:28:20;9.27;;;3.28;;
60588;SDS011;46421;48.610;9.334;2023-02-28T09:30:47;8.55;;;3.35;;
60588;SDS011;46421;48.610;9.334;2023-02-28T09:33:15;7.90;;;3.30;;
60588;SDS011;46421;48.610;9.334;2023-02-28T09:35:41;8.10;;;3.35;;
60588;SDS011;46421;48.610;9.334;2023-02-28T09:38:08;9.05;;;2.85;;
60588;SDS011;46421;48.610;9.334;2023-02-28T09:40:38;7.22;;;3.22;;
60588;SDS011;46421;48.610;9.334;2023-02-28T09:43:15;7.15;;;2.88;;
60588;SDS011;46421;48.610;9.334;2023-02-28T09:45:42;8.50;;;3.30;;
60588;SDS011;46421;48.610;9.334;2023-02-28T09:48:16;6.72;;;3.10;;
60588;SDS011;46421;48.610;9.334;2023-02-28T09:50:52;7.78;;;3.08;;
60588;SDS011;46421;48.610;9.334;2023-02-28T09:53:26;6.90;;;3.25;;
60588;SDS011;46421;48.610;9.334;2023-02-28T09:55:58;9.00;;;3.65;;
60588;SDS011;46421;48.610;9.334;2023-02-28T10:00:58;8.80;;;3.33;;
60588;SDS011;46421;48.610;9.334;2023-02-28T10:03:40;9.95;;;3.40;;
60588;SDS011;46421;48.610;9.334;2023-02-28T10:06:13;6.40;;;3.25;;
60588;SDS011;46421;48.610;9.334;2023-02-28T10:08:45;9.00;;;3.80;;
60588;SDS011;46421;48.610;9.334;2023-02-28T10:11:17;7.22;;;2.97;;
60588;SDS011;46421;48.610;9.334;2023-02-28T10:13:50;4.63;;;2.58;;
60588;SDS011;46421;48.610;9.334;2023-02-28T10:24:30;7.22;;;3.45;;
60588;SDS011;46421;48.610;9.334;2023-02-28T10:27:01;7.22;;;3.47;;
60588;SDS011;46421;48.610;9.334;2023-02-28T10:29:37;6.63;;;2.97;;
60588;SDS011;46421;48.610;9.334;2023-02-28T10:32:07;8.82;;;3.95;;
60588;SDS011;46421;48.610;9.334;2023-02-28T10:34:36;7.18;;;2.88;;
60588;SDS011;46421;48.610;9.334;2023-02-28T10:37:01;8.10;;;3.30;;
60588;SDS011;46421;48.610;9.334;2023-02-28T10:44:45;7.75;;;3.72;;
60588;SDS011;46421;48.610;9.334;2023-02-28T10:47:15;7.25;;;3.47;;
60588;SDS011;46421;48.610;9.334;2023-02-28T10:49:49;8.25;;;3.63;;
60588;SDS011;46421;48.610;9.334;2023-02-28T10:52:33;8.65;;;3.40;;
60588;SDS011;46421;48.610;9.334;2023-02-28T10:58:01;7.97;;;3.70;;
60588;SDS011;46421;48.610;9.334;2023-02-28T11:00:31;7.18;;;3.53;;
60588;SDS011;46421;48.610;9.334;2023-02-28T11:02:58;7.35;;;3.70;;
60588;SDS011;46421;48.610;9.334;2023-02-28T11:07:55;7.18;;;3.28;;
60588;SDS011;46421;48.610;9.334;2023-02-28T11:10:25;8.00;;;3.80;;
60588;SDS011;46421;48.610;9.334;2023-02-28T11:12:54;9.10;;;4.38;;
60588;SDS011;46421;48.610;9.334;2023-02-28T11:15:24;9.32;;;4.00;;
60588;SDS011;46421;48.610;9.334;2023-02-28T11:17:59;8.93;;;4.18;;
60588;SDS011;46421;48.610;9.334;2023-02-28T11:20:30;8.15;;;4.05;;
60588;SDS011;46421;48.610;9.334;2023-02-28T11:22:58;9.80;;;4.15;;
60588;SDS011;46421;48.610;9.334;2023-02-28T11:25:28;9.38;;;4.20;;
60588;SDS011;46421;48.610;9.334;2023-02-28T11:27:57;11.00;;;4.53;;
60588;SDS011;46421;48.610;9.334;2023-02-28T11:30:28;8.50;;;3.88;;
60588;SDS011;46421;48.610;9.334;2023-02-28T11:36:03;8.77;;;4.25;;
60588;SDS011;46421;48.610;9.334;2023-02-28T11:38:35;7.57;;;3.90;;
60588;SDS011;46421;48.610;9.334;2023-02-28T11:41:16;8.85;;;3.97;;
60588;SDS011;46421;48.610;9.334;2023-02-28T11:47:06;7.95;;;4.47;;
60588;SDS011;46421;48.610;9.334;2023-02-28T11:52:53;8.00;;;4.00;;
60588;SDS011;46421;48.610;9.334;2023-02-28T11:55:35;9.20;;;4.70;;
60588;SDS011;46421;48.610;9.334;2023-02-28T12:04:51;8.85;;;4.78;;
60588;SDS011;46421;48.610;9.334;2023-02-28T12:07:03;10.13;;;4.25;;
60588;SDS011;46421;48.610;9.334;2023-02-28T12:09:44;10.20;;;4.40;;
60588;SDS011;46421;48.610;9.334;2023-02-28T12:12:21;9.93;;;4.00;;
60588;SDS011;46421;48.610;9.334;2023-02-28T12:15:02;7.05;;;4.25;;
60588;SDS011;46421;48.610;9.334;2023-02-28T12:18:00;8.30;;;4.47;;
60588;SDS011;46421;48.610;9.334;2023-02-28T12:20:49;7.57;;;4.25;;
60588;SDS011;46421;48.610;9.334;2023-02-28T12:29:02;7.05;;;4.20;;
60588;SDS011;46421;48.610;9.334;2023-02-28T12:31:42;8.20;;;4.38;;
60588;SDS011;46421;48.610;9.334;2023-02-28T12:34:16;8.77;;;4.28;;
60588;SDS011;46421;48.610;9.334;2023-02-28T12:36:48;9.13;;;4.85;;
60588;SDS011;46421;48.610;9.334;2023-02-28T12:39:23;8.77;;;4.38;;
60588;SDS011;46421;48.610;9.334;2023-02-28T12:41:59;9.95;;;4.40;;
60588;SDS011;46421;48.610;9.334;2023-02-28T12:44:34;9.93;;;4.47;;
60588;SDS011;46421;48.610;9.334;2023-02-28T12:47:05;9.77;;;5.22;;
60588;SDS011;46421;48.610;9.334;2023-02-28T12:49:38;9.38;;;4.75;;
60588;SDS011;46421;48.610;9.334;2023-02-28T12:52:14;8.52;;;4.68;;
60588;SDS011;46421;48.610;9.334;2023-02-28T12:57:34;8.25;;;4.32;;
60588;SDS011;46421;48.610;9.334;2023-02-28T13:00:10;6.85;;;3.90;;
60588;SDS011;46421;48.610;9.334;2023-02-28T13:02:58;8.35;;;4.57;;
60588;SDS011;46421;48.610;9.334;2023-02-28T13:08:16;8.35;;;4.40;;
60588;SDS011;46421;48.610;9.334;2023-02-28T13:11:38;8.98;;;4.72;;
60588;SDS011;46421;48.610;9.334;2023-02-28T13:14:19;9.05;;;4.35;;
60588;SDS011;46421;48.610;9.334;2023-02-28T13:16:54;12.57;;;4.40;;
60588;SDS011;46421;48.610;9.334;2023-02-28T13:19:26;8.77;;;4.78;;
60588;SDS011;46421;48.610;9.334;2023-02-28T13:21:54;8.70;;;4.45;;
60588;SDS011;46421;48.610;9.334;2023-02-28T13:24:55;9.95;;;4.18;;
60588;SDS011;46421;48.610;9.334;2023-02-28T13:27:25;7.65;;;4.03;;
60588;SDS011;46421;48.610;9.334;2023-02-28T13:30:49;10.27;;;3.88;;
60588;SDS011;46421;48.610;9.334;2023-02-28T13:38:42;11.65;;;5.25;;
60588;SDS011;46421;48.610;9.334;2023-02-28T13:44:20;9.70;;;4.15;;
60588;SDS011;46421;48.610;9.334;2023-02-28T14:00:31;9.60;;;3.92;;
60588;SDS011;46421;48.610;9.334;2023-02-28T14:05:44;6.82;;;3.20;;
60588;SDS011;46421;48.610;9.334;2023-02-28T14:08:17;7.88;;;3.95;;
60588;SDS011;46421;48.610;9.334;2023-02-28T14:10:47;8.52;;;3.60;;
60588;SDS011;46421;48.610;9.334;2023-02-28T14:15:57;7.28;;;3.45;;
60588;SDS011;46421;48.610;9.334;2023-02-28T14:18:31;7.15;;;3.40;;
60588;SDS011;46421;48.610;9.334;2023-02-28T14:21:21;8.68;;;3.70;;
60588;SDS011;46421;48.610;9.334;2023-02-28T14:24:08;8.77;;;4.20;;
60588;SDS011;46421;48.610;9.334;2023-02-28T14:27:05;8.27;;;3.30;;
60588;SDS011;46421;48.610;9.334;2023-02-28T14:32:31;8.52;;;3.58;;
60588;SDS011;46421;48.610;9.334;2023-02-28T14:37:50;8.45;;;3.65;;
60588;SDS011;46421;48.610;9.334;2023-02-28T14:40:23;7.53;;;3.45;;
60588;SDS011;46421;48.610;9.334;2023-02-28T14:43:04;8.20;;;3.88;;
60588;SDS011;46421;48.610;9.334;2023-02-28T14:45:34;8.20;;;3.45;;
60588;SDS011;46421;48.610;9.334;2023-02-28T14:48:02;7.82;;;3.45;;
60588;SDS011;46421;48.610;9.334;2023-02-28T14:50:34;8.45;;;3.60;;
60588;SDS011;46421;48.610;9.334;2023-02-28T14:53:02;7.70;;;3.75;;
60588;SDS011;46421;48.610;9.334;2023-02-28T14:55:33;8.57;;;3.90;;
60588;SDS011;46421;48.610;9.334;2023-02-28T14:58:01;6.63;;;3.42;;
60588;SDS011;46421;48.610;9.334;2023-02-28T15:00:32;7.90;;;3.65;;
60588;SDS011;46421;48.610;9.334;2023-02-28T15:03:00;8.70;;;3.65;;
60588;SDS011;46421;48.610;9.334;2023-02-28T15:05:37;9.85;;;3.88;;
60588;SDS011;46421;48.610;9.334;2023-02-28T15:08:04;10.25;;;3.90;;
60588;SDS011;46421;48.610;9.334;2023-02-28T15:10:30;9.38;;;4.35;;
60588;SDS011;46421;48.610;9.334;2023-02-28T15:18:01;10.20;;;4.07;;
60588;SDS011;46421;48.610;9.334;2023-02-28T15:20:30;8.95;;;3.78;;
60588;SDS011;46421;48.610;9.334;2023-02-28T15:22:57;8.88;;;3.40;;
60588;SDS011;46421;48.610;9.334;2023-02-28T15:25:23;8.20;;;3.67;;
60588;SDS011;46421;48.610;9.334;2023-02-28T15:27:50;9.20;;;3.58;;
60588;SDS011;46421;48.610;9.334;2023-02-28T15:30:21;7.45;;;3.40;;
60588;SDS011;46421;48.610;9.334;2023-02-28T15:33:05;7.95;;;3.58;;
60588;SDS011;46421;48.610;9.334;2023-02-28T15:35:42;7.60;;;3.30;;
60588;SDS011;46421;48.610;9.334;2023-02-28T15:38:17;7.18;;;3.60;;
60588;SDS011;46421;48.610;9.334;2023-02-28T15:40:50;7.63;;;3.58;;
60588;SDS011;46421;48.610;9.334;2023-02-28T15:51:17;9.85;;;3.88;;
60588;SDS011;46421;48.610;9.334;2023-02-28T15:53:49;8.18;;;3.40;;
60588;SDS011;46421;48.610;9.334;2023-02-28T15:56:40;9.32;;;3.70;;
60588;SDS011;46421;48.610;9.334;2023-02-28T15:59:19;8.23;;;3.63;;
60588;SDS011;46421;48.610;9.334;2023-02-28T16:01:58;7.72;;;3.53;;
60588;SDS011;46421;48.610;9.334;2023-02-28T16:04:58;9.50;;;4.13;;
60588;SDS011;46421;48.610;9.334;2023-02-28T16:07:39;8.55;;;3.35;;
60588;SDS011;46421;48.610;9.334;2023-02-28T16:10:06;7.50;;;3.35;;
60588;SDS011;46421;48.610;9.334;2023-02-28T16:15:06;5.90;;;2.85;;
60588;SDS011;46421;48.610;9.334;2023-02-28T16:17:43;8.45;;;3.42;;
60588;SDS011;46421;48.610;9.334;2023-02-28T16:20:17;6.63;;;3.03;;
60588;SDS011;46421;48.610;9.334;2023-02-28T16:22:47;7.25;;;3.03;;
60588;SDS011;46421;48.610;9.334;2023-02-28T16:25:13;9.43;;;3.97;;
60588;SDS011;46421;48.610;9.334;2023-02-28T16:27:39;10.30;;;3.33;;
60588;SDS011;46421;48.610;9.334;2023-02-28T16:30:05;9.63;;;3.88;;
60588;SDS011;46421;48.610;9.334;2023-02-28T16:32:35;10.00;;;3.92;;
60588;SDS011;46421;48.610;9.334;2023-02-28T16:35:01;13.20;;;3.97;;
60588;SDS011;46421;48.610;9.334;2023-02-28T16:37:28;9.35;;;4.22;;
60588;SDS011;46421;48.610;9.334;2023-02-28T16:39:53;8.13;;;3.40;;
60588;SDS011;46421;48.610;9.334;2023-02-28T16:42:25;11.95;;;3.40;;
60588;SDS011;46421;48.610;9.334;2023-02-28T16:44:55;8.90;;;3.53;;
60588;SDS011;46421;48.610;9.334;2023-02-28T16:47:21;7.93;;;3.70;;
60588;SDS011;46421;48.610;9.334;2023-02-28T16:49:47;11.25;;;3.83;;
60588;SDS011;46421;48.610;9.334;2023-02-28T16:52:13;11.40;;;4.50;;
60588;SDS011;46421;48.610;9.334;2023-02-28T16:54:39;9.80;;;4.07;;
60588;SDS011;46421;48.610;9.334;2023-02-28T16:57:06;8.40;;;4.00;;
60588;SDS011;46421;48.610;9.334;2023-02-28T16:59:38;14.43;;;5.85;;
60588;SDS011;46421;48.610;9.334;2023-02-28T17:02:08;13.65;;;7.97;;
60588;SDS011;46421;48.610;9.334;2023-02-28T17:04:36;10.85;;;4.97;;
60588;SDS011;46421;48.610;9.334;2023-02-28T17:07:02;12.07;;;3.97;;
60588;SDS011;46421;48.610;9.334;2023-02-28T17:09:27;7.37;;;3.50;;
60588;SDS011;46421;48.610;9.334;2023-02-28T17:11:53;7.10;;;3.60;;
60588;SDS011;46421;48.610;9.334;2023-02-28T17:14:18;8.93;;;4.00;;
60588;SDS011;46421;48.610;9.334;2023-02-28T17:16:44;9.40;;;3.80;;
60588;SDS011;46421;48.610;9.334;2023-02-28T17:19:11;9.37;;;4.30;;
60588;SDS011;46421;48.610;9.334;2023-02-28T17:21:38;11.73;;;4.40;;
60588;SDS011;46421;48.610;9.334;2023-02-28T17:24:03;9.77;;;4.25;;
60588;SDS011;46421;48.610;9.334;2023-02-28T17:26:29;10.40;;;4.13;;
60588;SDS011;46421;48.610;9.334;2023-02-28T17:28:55;10.68;;;4.20;;
60588;SDS011;46421;48.610;9.334;2023-02-28T17:31:25;9.88;;;4.43;;
60588;SDS011;46421;48.610;9.334;2023-02-28T17:33:51;10.15;;;4.00;;
60588;SDS011;46421;48.610;9.334;2023-02-28T17:36:24;9.35;;;4.00;;
60588;SDS011;46421;48.610;9.334;2023-02-28T17:38:51;11.63;;;4.40;;